Time;durP1;ratioP1;P1;durP2;ratioP2;P2;SDS_P1;SDS_P2;PMS_P1;PMS_P2;Temp;Humidity;BMP_temperature;BMP_pressure;BME280_temperature;BME280_humidity;BME280_pressure;Samples;Min_cycle;Max_cycle;Signal;HPM_P1;HPM_P2
2022/03/24 00:01:39;;;;;;;41.55;32.97;;;10.00;99.90;;;;;;5035223;28;20176;-61
2022/03/24 00:04:06;;;;;;;40.38;32.42;;;9.90;99.90;;;;;;5034858;28;20214;-61
2022/03/24 00:06:31;;;;;;;41.47;33.28;;;9.80;99.90;;;;;;5035016;28;20276;-62
2022/03/24 00:08:57;;;;;;;40.63;33.03;;;9.90;99.90;;;;;;5034376;28;20314;-61
2022/03/24 00:11:23;;;;;;;39.97;32.95;;;9.90;99.90;;;;;;5034572;28;20195;-61
2022/03/24 00:13:48;;;;;;;42.53;32.63;;;9.90;99.90;;;;;;5034651;28;20572;-61
2022/03/24 00:16:15;;;;;;;39.38;31.77;;;9.80;99.90;;;;;;5035085;28;20184;-61
2022/03/24 00:18:41;;;;;;;39.58;31.88;;;9.70;99.90;;;;;;5035044;28;20222;-61
2022/03/24 00:21:08;;;;;;;37.83;32.05;;;9.70;99.90;;;;;;5034736;28;20183;-61
2022/03/24 00:23:34;;;;;;;38.45;31.20;;;9.70;99.90;;;;;;5034393;28;20669;-61
2022/03/24 00:26:00;;;;;;;38.85;31.90;;;9.80;99.90;;;;;;5034500;28;20184;-61
2022/03/24 00:28:26;;;;;;;41.90;33.17;;;9.80;99.90;;;;;;5034396;28;20180;-63
2022/03/24 00:30:51;;;;;;;39.30;32.33;;;9.60;99.90;;;;;;5034556;28;20180;-63
2022/03/24 00:33:17;;;;;;;40.22;32.83;;;9.30;99.90;;;;;;5034278;28;20183;-61
2022/03/24 00:35:43;;;;;;;40.85;33.40;;;9.20;99.90;;;;;;5034585;28;20168;-61
2022/03/24 00:38:09;;;;;;;39.92;33.40;;;9.30;99.90;;;;;;5034643;28;20186;-61
2022/03/24 00:40:35;;;;;;;37.88;31.80;;;9.20;99.90;;;;;;5034215;28;20172;-61
2022/03/24 00:43:01;;;;;;;39.83;32.38;;;9.30;99.90;;;;;;5034051;28;20204;-61
2022/03/24 00:45:27;;;;;;;40.47;32.50;;;9.20;99.90;;;;;;5034318;28;20195;-61
2022/03/24 00:47:53;;;;;;;40.47;32.88;;;9.20;99.90;;;;;;5034245;28;20199;-61
2022/03/24 00:50:19;;;;;;;41.65;33.15;;;9.10;99.90;;;;;;5034081;28;20195;-61
2022/03/24 00:52:46;;;;;;;39.97;33.03;;;9.00;99.90;;;;;;5033136;28;20176;-60
2022/03/24 00:55:21;;;;;;;40.22;32.90;;;8.90;99.90;;;;;;5033938;28;20270;-61
2022/03/24 00:57:49;;;;;;;39.38;33.35;;;8.60;99.90;;;;;;5033878;28;20172;-61
2022/03/24 01:00:17;;;;;;;41.78;34.97;;;8.50;99.90;;;;;;5034086;28;20622;-61
2022/03/24 01:02:44;;;;;;;41.95;34.65;;;8.30;99.90;;;;;;5033872;28;20196;-61
2022/03/24 01:05:13;;;;;;;41.20;33.35;;;8.10;99.90;;;;;;5032654;28;20230;-61
2022/03/24 01:07:39;;;;;;;42.05;33.28;;;8.20;99.90;;;;;;5033720;28;20180;-61
2022/03/24 01:10:06;;;;;;;37.20;31.83;;;8.20;99.90;;;;;;5033712;28;20190;-61
2022/03/24 01:12:32;;;;;;;41.13;33.10;;;8.10;99.90;;;;;;5033765;28;20206;-61
2022/03/24 01:14:58;;;;;;;42.60;34.58;;;8.10;99.90;;;;;;5033749;28;20230;-61
2022/03/24 01:17:25;;;;;;;40.97;35.28;;;8.10;99.90;;;;;;5033554;28;20176;-61
2022/03/24 01:19:51;;;;;;;43.20;36.75;;;8.10;99.90;;;;;;5033640;28;20176;-61
2022/03/24 01:22:17;;;;;;;42.50;34.67;;;8.00;99.90;;;;;;5033373;28;20664;-61
2022/03/24 01:24:43;;;;;;;45.65;37.35;;;8.00;99.90;;;;;;5033362;28;20172;-61
2022/03/24 01:27:10;;;;;;;41.22;35.22;;;7.90;99.90;;;;;;5033649;28;20587;-61
2022/03/24 01:29:36;;;;;;;43.83;35.53;;;7.70;99.90;;;;;;5033714;28;20262;-61
2022/03/24 01:32:03;;;;;;;43.80;35.28;;;7.70;99.90;;;;;;5032293;28;20299;-61
2022/03/24 01:34:29;;;;;;;44.47;35.47;;;7.60;99.90;;;;;;5033297;28;20183;-61
2022/03/24 01:36:55;;;;;;;40.90;34.08;;;7.60;99.90;;;;;;5032151;28;20204;-61
2022/03/24 01:39:22;;;;;;;44.30;37.30;;;7.70;99.90;;;;;;5033475;28;20519;-61
2022/03/24 01:41:48;;;;;;;41.72;36.25;;;7.70;99.90;;;;;;5033402;28;20178;-61
2022/03/24 01:44:21;;;;;;;43.42;38.17;;;7.60;99.90;;;;;;5033271;28;20207;-61
2022/03/24 01:47:06;;;;;;;42.20;36.58;;;7.70;99.90;;;;;;5033358;28;20188;-61
2022/03/24 01:49:37;;;;;;;45.85;36.30;;;7.60;99.90;;;;;;5033288;28;20655;-61
2022/03/24 01:52:07;;;;;;;45.05;36.17;;;7.70;99.90;;;;;;5033051;28;20676;-61
2022/03/24 01:54:34;;;;;;;44.92;36.67;;;7.60;99.90;;;;;;5033159;28;20183;-60
2022/03/24 01:57:01;;;;;;;41.70;37.05;;;7.40;99.90;;;;;;5033246;28;20172;-61
2022/03/24 01:59:28;;;;;;;43.20;36.55;;;7.40;99.90;;;;;;5032174;28;20187;-61
2022/03/24 02:01:54;;;;;;;41.28;35.15;;;7.40;99.90;;;;;;5033108;28;20204;-61
2022/03/24 02:04:20;;;;;;;44.83;36.30;;;7.40;99.90;;;;;;5032842;28;20210;-61
2022/03/24 02:06:46;;;;;;;45.85;36.80;;;7.40;99.90;;;;;;5033223;28;20184;-61
2022/03/24 02:09:13;;;;;;;43.97;33.72;;;7.20;99.90;;;;;;5033139;28;20168;-61
2022/03/24 02:11:39;;;;;;;46.90;36.80;;;7.00;99.90;;;;;;5033057;28;20179;-61
2022/03/24 02:14:06;;;;;;;43.70;35.70;;;7.00;99.90;;;;;;5032936;28;20249;-61
2022/03/24 02:16:34;;;;;;;47.17;36.75;;;7.10;99.90;;;;;;5032868;28;20184;-61
2022/03/24 02:19:11;;;;;;;44.70;38.13;;;7.10;99.90;;;;;;5032821;28;20175;-61
2022/03/24 02:21:39;;;;;;;46.55;38.97;;;7.20;99.90;;;;;;5033090;28;20211;-61
2022/03/24 02:24:05;;;;;;;49.00;38.25;;;7.20;99.90;;;;;;5032835;28;20210;-61
2022/03/24 02:26:31;;;;;;;46.25;37.55;;;7.20;99.90;;;;;;5032958;28;20180;-61
2022/03/24 02:28:57;;;;;;;46.22;37.42;;;7.20;99.90;;;;;;5032724;28;20661;-60
2022/03/24 02:31:23;;;;;;;49.72;36.88;;;7.30;99.90;;;;;;5032680;28;20219;-61
2022/03/24 02:34:37;;;;;;;45.92;38.05;;;7.30;99.90;;;;;;5035452;28;20645;-62
2022/03/24 02:36:39;;;;;;;46.30;37.90;;;7.40;99.90;;;;;;5036392;28;20188;-62
2022/03/24 02:39:05;;;;;;;49.25;38.50;;;7.40;99.90;;;;;;5036520;28;20515;-61
2022/03/24 02:41:31;;;;;;;49.38;37.72;;;7.40;99.90;;;;;;5036536;28;20176;-62
2022/03/24 02:43:58;;;;;;;50.80;37.25;;;7.30;99.90;;;;;;5036253;28;20227;-61
2022/03/24 02:46:24;;;;;;;45.28;34.63;;;7.30;99.90;;;;;;5036811;28;20199;-61
2022/03/24 02:48:50;;;;;;;49.50;38.10;;;7.50;99.90;;;;;;5036550;28;20172;-63
2022/03/24 02:51:16;;;;;;;45.20;36.75;;;7.40;99.90;;;;;;5036477;28;20187;-62
2022/03/24 02:53:41;;;;;;;47.83;37.05;;;7.30;99.90;;;;;;5035132;28;20184;-62
2022/03/24 02:56:07;;;;;;;45.22;36.78;;;7.20;99.90;;;;;;5036257;28;20168;-62
2022/03/24 02:58:33;;;;;;;42.25;36.40;;;6.90;99.90;;;;;;5036069;28;20186;-61
2022/03/24 03:00:58;;;;;;;48.03;38.03;;;7.00;99.90;;;;;;5036273;28;20257;-61
2022/03/24 03:03:24;;;;;;;44.72;35.75;;;7.10;99.90;;;;;;5036084;28;20290;-61
2022/03/24 03:05:50;;;;;;;47.15;35.33;;;6.90;99.90;;;;;;5036135;28;20660;-62
2022/03/24 03:08:18;;;;;;;41.35;35.17;;;6.90;99.90;;;;;;5036102;28;20175;-62
2022/03/24 03:10:43;;;;;;;40.60;35.03;;;6.90;99.90;;;;;;5035844;28;20179;-62
2022/03/24 03:13:09;;;;;;;42.40;36.38;;;6.80;99.90;;;;;;5035868;28;20234;-62
2022/03/24 03:15:35;;;;;;;42.90;34.78;;;6.90;99.90;;;;;;5035829;28;20569;-62
2022/03/24 03:18:02;;;;;;;41.30;35.40;;;6.90;99.90;;;;;;5018333;28;20191;-62
2022/03/24 03:20:28;;;;;;;44.38;36.55;;;6.90;99.90;;;;;;5035915;28;20172;-62
2022/03/24 03:22:55;;;;;;;42.35;36.83;;;7.00;99.90;;;;;;5036087;28;20199;-62
2022/03/24 03:25:22;;;;;;;46.00;34.55;;;7.10;99.90;;;;;;5035651;28;20191;-61
2022/03/24 03:27:48;;;;;;;40.00;33.42;;;6.90;99.90;;;;;;5035634;28;20184;-62
2022/03/24 03:30:14;;;;;;;43.63;35.13;;;6.70;99.90;;;;;;5035783;28;20528;-62
2022/03/24 03:32:41;;;;;;;47.60;37.92;;;6.60;99.90;;;;;;5035685;28;20187;-62
2022/03/24 03:35:07;;;;;;;45.50;36.95;;;6.70;99.90;;;;;;5035590;28;20176;-62
2022/03/24 03:37:33;;;;;;;47.65;34.83;;;6.80;99.90;;;;;;5035691;28;20510;-62
2022/03/24 03:39:59;;;;;;;46.38;37.33;;;6.90;99.90;;;;;;5035394;28;20179;-62
2022/03/24 03:42:25;;;;;;;42.40;35.83;;;7.00;99.90;;;;;;5035257;28;20182;-62
2022/03/24 03:44:50;;;;;;;44.20;33.67;;;7.00;99.90;;;;;;5034192;28;20200;-62
2022/03/24 03:47:17;;;;;;;46.60;35.00;;;6.90;99.90;;;;;;5035462;28;20271;-62
2022/03/24 03:49:43;;;;;;;44.35;35.65;;;6.80;99.90;;;;;;5035290;28;20176;-62
2022/03/24 03:52:08;;;;;;;43.63;33.88;;;6.80;99.90;;;;;;5035218;28;20183;-62
2022/03/24 03:54:34;;;;;;;41.90;34.40;;;6.80;99.90;;;;;;5035139;28;20211;-62
2022/03/24 03:57:00;;;;;;;45.15;34.28;;;6.70;99.90;;;;;;5035102;28;20172;-62
2022/03/24 03:59:25;;;;;;;43.53;33.58;;;6.80;99.90;;;;;;5033887;28;20552;-60
2022/03/24 04:01:53;;;;;;;43.92;35.20;;;6.70;99.90;;;;;;5035173;28;20179;-60
2022/03/24 04:04:19;;;;;;;46.05;35.00;;;6.70;99.90;;;;;;5035131;28;20237;-60
2022/03/24 04:06:45;;;;;;;45.75;35.55;;;6.60;99.90;;;;;;5035041;28;20640;-60
2022/03/24 04:09:11;;;;;;;43.67;33.10;;;6.60;99.90;;;;;;5033655;28;20518;-59
2022/03/24 04:11:37;;;;;;;44.85;33.40;;;6.50;99.90;;;;;;5035009;28;20226;-61
2022/03/24 04:14:03;;;;;;;43.33;34.33;;;6.50;99.90;;;;;;5034787;28;20194;-61
2022/03/24 04:16:29;;;;;;;44.13;34.33;;;6.40;99.90;;;;;;5034545;28;20191;-61
2022/03/24 04:18:55;;;;;;;45.53;33.95;;;6.30;99.90;;;;;;5034796;28;20255;-61
2022/03/24 04:21:21;;;;;;;45.72;36.03;;;6.40;99.90;;;;;;5034692;28;20184;-60
2022/03/24 04:23:47;;;;;;;43.53;33.78;;;6.60;99.90;;;;;;5034473;28;20196;-60
2022/03/24 04:26:13;;;;;;;45.55;35.28;;;6.60;99.90;;;;;;5034715;28;20194;-61
2022/03/24 04:28:40;;;;;;;45.45;36.38;;;6.60;99.90;;;;;;5034831;28;20195;-61
2022/03/24 04:31:06;;;;;;;44.10;36.17;;;6.70;99.90;;;;;;5034615;28;20711;-61
2022/03/24 04:33:32;;;;;;;43.92;35.28;;;6.70;99.90;;;;;;5034513;28;20214;-61
2022/03/24 04:35:58;;;;;;;44.35;35.15;;;6.70;99.90;;;;;;5034378;28;20183;-61
2022/03/24 04:38:24;;;;;;;41.03;33.80;;;6.60;99.90;;;;;;5034187;28;20620;-61
2022/03/24 04:40:49;;;;;;;44.40;35.50;;;6.60;99.90;;;;;;5034557;28;20264;-61
2022/03/24 04:43:15;;;;;;;46.50;34.60;;;6.70;99.90;;;;;;5034329;28;20739;-61
2022/03/24 04:45:41;;;;;;;36.72;32.42;;;6.60;99.90;;;;;;5034068;28;20215;-61
2022/03/24 04:48:08;;;;;;;45.38;34.20;;;6.30;99.90;;;;;;5034246;28;20229;-61
2022/03/24 04:50:34;;;;;;;48.53;34.15;;;6.30;99.90;;;;;;5034392;28;20175;-60
2022/03/24 04:53:00;;;;;;;46.03;34.63;;;6.30;99.90;;;;;;5033847;28;20195;-61
2022/03/24 04:55:26;;;;;;;46.75;34.88;;;6.20;99.90;;;;;;5033854;28;20180;-61
2022/03/24 04:57:52;;;;;;;45.58;34.30;;;6.30;99.90;;;;;;5034202;28;20267;-61
2022/03/24 05:00:18;;;;;;;45.05;33.53;;;6.30;99.90;;;;;;5033900;28;20181;-61
2022/03/24 05:02:46;;;;;;;45.37;34.87;;;6.30;99.90;;;;;;5033773;28;20198;-63
2022/03/24 05:05:12;;;;;;;47.53;34.67;;;6.30;99.90;;;;;;5033869;28;20541;-61
2022/03/24 05:07:38;;;;;;;45.72;35.70;;;6.10;99.90;;;;;;5032531;28;20183;-61
2022/03/24 05:10:05;;;;;;;43.88;34.05;;;5.90;99.90;;;;;;5034229;28;20194;-61
2022/03/24 05:12:30;;;;;;;42.75;34.33;;;6.00;99.90;;;;;;5033852;28;20181;-63
2022/03/24 05:14:57;;;;;;;47.42;34.08;;;6.10;99.90;;;;;;5033809;28;20660;-61
2022/03/24 05:17:22;;;;;;;50.28;33.90;;;6.10;99.90;;;;;;5033727;28;20176;-60
2022/03/24 05:19:49;;;;;;;48.92;33.60;;;6.20;99.90;;;;;;5033637;28;20187;-60
2022/03/24 05:22:16;;;;;;;51.22;35.08;;;6.20;99.90;;;;;;5033583;28;20176;-61
2022/03/24 05:24:43;;;;;;;49.13;34.83;;;6.20;99.90;;;;;;5033654;28;20207;-61
2022/03/24 05:27:10;;;;;;;49.38;34.92;;;6.20;99.90;;;;;;5033420;28;20537;-61
2022/03/24 05:29:36;;;;;;;46.42;34.72;;;6.30;99.90;;;;;;5033571;28;20624;-61
2022/03/24 05:32:02;;;;;;;42.67;34.95;;;6.30;99.90;;;;;;5033410;28;20253;-61
2022/03/24 05:34:27;;;;;;;44.75;34.88;;;6.20;99.90;;;;;;5033435;28;20207;-61
2022/03/24 05:36:53;;;;;;;54.35;35.22;;;6.10;99.90;;;;;;5033308;28;20286;-61
2022/03/24 05:39:19;;;;;;;53.90;33.20;;;6.00;99.90;;;;;;5033448;28;20184;-61
2022/03/24 05:41:45;;;;;;;49.10;36.05;;;5.90;99.90;;;;;;5032148;28;20184;-60
2022/03/24 05:44:11;;;;;;;50.85;34.97;;;5.90;99.90;;;;;;5033189;28;20214;-61
2022/03/24 05:46:40;;;;;;;52.28;35.35;;;6.00;99.90;;;;;;5033299;28;20237;-61
2022/03/24 05:49:06;;;;;;;51.50;35.92;;;6.10;99.90;;;;;;5033242;28;20646;-61
2022/03/24 05:51:33;;;;;;;52.28;37.05;;;6.10;99.90;;;;;;5033001;28;20183;-62
2022/03/24 05:53:59;;;;;;;53.35;36.85;;;6.10;99.90;;;;;;5033340;28;20172;-61
2022/03/24 05:56:25;;;;;;;55.60;36.30;;;6.20;99.90;;;;;;5033286;28;20187;-60
2022/03/24 05:58:51;;;;;;;57.70;37.20;;;6.30;99.90;;;;;;5033255;28;20175;-58
2022/03/24 06:01:17;;;;;;;49.97;38.15;;;6.20;99.90;;;;;;5032767;28;20259;-59
2022/03/24 06:03:45;;;;;;;51.78;36.55;;;6.30;99.90;;;;;;5032639;28;20195;-59
2022/03/24 06:06:12;;;;;;;54.92;38.47;;;6.30;99.90;;;;;;5032919;28;20322;-59
2022/03/24 06:08:43;;;;;;;54.97;38.50;;;6.30;99.90;;;;;;5035592;28;20182;-59
2022/03/24 06:11:13;;;;;;;57.42;39.10;;;6.40;99.90;;;;;;5037228;28;20522;-60
2022/03/24 06:13:40;;;;;;;54.38;39.20;;;6.40;99.90;;;;;;5037024;28;20186;-61
2022/03/24 06:16:06;;;;;;;57.78;37.90;;;6.40;99.90;;;;;;5037355;28;20187;-59
2022/03/24 06:18:32;;;;;;;48.55;38.25;;;6.50;99.90;;;;;;5036867;28;20178;-60
2022/03/24 06:20:59;;;;;;;58.10;39.65;;;6.50;99.90;;;;;;5035867;28;20187;-58
2022/03/24 06:23:25;;;;;;;49.75;38.08;;;6.50;99.90;;;;;;5036902;28;20241;-59
2022/03/24 06:25:51;;;;;;;57.05;41.15;;;6.50;99.90;;;;;;5036908;28;20183;-60
2022/03/24 06:28:17;;;;;;;58.13;39.15;;;6.50;99.90;;;;;;5036894;28;20233;-59
2022/03/24 06:30:42;;;;;;;53.17;37.97;;;6.50;99.90;;;;;;5036766;28;20210;-60
2022/03/24 06:33:09;;;;;;;51.03;38.13;;;6.60;99.90;;;;;;5036582;28;20187;-60
2022/03/24 06:35:34;;;;;;;54.25;38.38;;;6.60;99.90;;;;;;5036887;28;20266;-60
2022/03/24 06:38:00;;;;;;;51.75;38.03;;;6.80;99.90;;;;;;5036568;28;20700;-60
2022/03/24 06:40:26;;;;;;;50.45;38.17;;;6.90;99.90;;;;;;5036596;28;20183;-60
2022/03/24 06:42:52;;;;;;;53.50;38.83;;;7.00;99.90;;;;;;5036422;28;20196;-60
2022/03/24 06:45:18;;;;;;;53.20;39.55;;;7.10;99.90;;;;;;5036679;28;20576;-60
2022/03/24 06:47:44;;;;;;;49.42;39.03;;;7.10;99.90;;;;;;5036223;28;20274;-59
2022/03/24 06:50:12;;;;;;;53.70;40.88;;;7.20;99.90;;;;;;5036523;28;20637;-59
2022/03/24 06:52:38;;;;;;;55.97;39.42;;;7.30;99.90;;;;;;5036424;28;20183;-60
2022/03/24 06:55:05;;;;;;;53.08;42.83;;;7.50;99.90;;;;;;5036353;28;20184;-60
2022/03/24 06:57:31;;;;;;;52.38;40.85;;;7.70;99.90;;;;;;5036204;28;20180;-59
2022/03/24 06:59:56;;;;;;;55.05;42.83;;;7.80;99.90;;;;;;5036218;28;20715;-60
2022/03/24 07:02:22;;;;;;;54.95;43.85;;;8.00;99.90;;;;;;5036082;28;20259;-59
2022/03/24 07:04:48;;;;;;;54.38;43.22;;;8.10;99.90;;;;;;5036302;28;20572;-59
2022/03/24 07:07:13;;;;;;;60.67;44.33;;;8.30;99.90;;;;;;5036208;28;20541;-59
2022/03/24 07:09:39;;;;;;;56.50;43.20;;;8.50;99.90;;;;;;5036192;28;20187;-60
2022/03/24 07:12:05;;;;;;;56.85;43.42;;;8.70;99.90;;;;;;5035932;28;20180;-59
2022/03/24 07:14:31;;;;;;;57.03;43.83;;;8.80;99.90;;;;;;5036003;28;20180;-60
2022/03/24 07:16:57;;;;;;;55.22;42.85;;;9.00;99.90;;;;;;5035822;28;20640;-59
2022/03/24 07:19:22;;;;;;;50.65;41.88;;;9.10;99.90;;;;;;5035840;28;20180;-59
2022/03/24 07:21:48;;;;;;;52.38;42.13;;;9.20;99.90;;;;;;5036139;28;20172;-59
2022/03/24 07:24:14;;;;;;;53.78;42.33;;;9.40;99.90;;;;;;5035729;28;20212;-60
2022/03/24 07:26:40;;;;;;;54.25;44.05;;;9.40;99.90;;;;;;5036017;28;20179;-59
2022/03/24 07:29:06;;;;;;;55.70;44.17;;;9.60;99.90;;;;;;5035643;28;20179;-59
2022/03/24 07:31:32;;;;;;;49.97;41.95;;;10.00;99.90;;;;;;5035602;28;20672;-59
2022/03/24 07:33:58;;;;;;;54.17;42.72;;;10.20;99.90;;;;;;5035738;28;20219;-59
2022/03/24 07:36:25;;;;;;;51.22;42.35;;;10.40;99.90;;;;;;5035691;28;20179;-59
2022/03/24 07:38:55;;;;;;;57.58;43.08;;;10.60;99.90;;;;;;5035653;28;20199;-59
2022/03/24 07:41:22;;;;;;;51.67;41.65;;;10.90;99.90;;;;;;5035453;28;20172;-59
2022/03/24 07:43:48;;;;;;;53.85;43.03;;;11.10;99.90;;;;;;5035317;28;20192;-59
2022/03/24 07:46:13;;;;;;;54.38;40.60;;;11.30;99.90;;;;;;5035548;28;20222;-59
2022/03/24 07:48:39;;;;;;;49.03;39.22;;;11.50;99.90;;;;;;5035331;28;20638;-59
2022/03/24 07:51:06;;;;;;;55.35;41.28;;;11.70;99.90;;;;;;5035365;28;20168;-59
2022/03/24 07:53:34;;;;;;;51.38;39.95;;;11.90;99.90;;;;;;5035305;28;20172;-59
2022/03/24 07:56:00;;;;;;;47.53;38.97;;;12.10;99.90;;;;;;5035386;28;20261;-59
2022/03/24 07:58:26;;;;;;;52.72;38.65;;;12.20;99.90;;;;;;5035056;28;20762;-59
2022/03/24 08:00:52;;;;;;;52.80;38.50;;;12.40;99.90;;;;;;5035253;28;20272;-60
2022/03/24 08:03:19;;;;;;;52.58;38.30;;;12.50;99.90;;;;;;5035084;28;20310;-60
2022/03/24 08:05:46;;;;;;;49.72;38.80;;;12.40;99.90;;;;;;5035113;28;20176;-59
2022/03/24 08:08:12;;;;;;;50.40;38.17;;;12.60;99.90;;;;;;5034855;28;20630;-59
2022/03/24 08:10:40;;;;;;;54.95;40.03;;;12.70;99.90;;;;;;5034886;28;20183;-59
2022/03/24 08:13:06;;;;;;;55.03;39.17;;;12.60;99.90;;;;;;5034753;28;20184;-59
2022/03/24 08:15:33;;;;;;;59.25;39.88;;;12.80;99.90;;;;;;5034935;28;20238;-59
2022/03/24 08:17:59;;;;;;;51.88;39.05;;;13.00;99.90;;;;;;5034903;28;20171;-59
2022/03/24 08:20:25;;;;;;;55.72;38.47;;;13.10;99.90;;;;;;5035154;28;20180;-60
2022/03/24 08:22:52;;;;;;;58.40;37.78;;;13.20;99.90;;;;;;5034643;28;20176;-59
2022/03/24 08:25:18;;;;;;;52.78;37.55;;;13.40;99.90;;;;;;5034576;28;20184;-60
2022/03/24 08:27:44;;;;;;;50.40;38.65;;;13.60;99.90;;;;;;5034462;28;20179;-59
2022/03/24 08:30:10;;;;;;;51.50;38.55;;;13.90;99.90;;;;;;5033938;28;20173;-59
2022/03/24 08:32:35;;;;;;;49.97;37.03;;;14.10;99.90;;;;;;5034619;28;20199;-59
2022/03/24 08:35:02;;;;;;;53.03;39.03;;;14.20;99.90;;;;;;5034465;28;20171;-59
2022/03/24 08:37:28;;;;;;;50.47;37.22;;;14.30;99.90;;;;;;5034402;28;20172;-59
2022/03/24 08:39:54;;;;;;;50.50;36.53;;;14.50;99.90;;;;;;5034407;28;20172;-59
2022/03/24 08:42:20;;;;;;;53.30;36.00;;;14.70;99.90;;;;;;5034252;28;20174;-59
2022/03/24 08:44:45;;;;;;;52.00;34.17;;;14.90;99.90;;;;;;5034237;28;20428;-59
2022/03/24 08:47:11;;;;;;;46.90;35.35;;;14.90;98.80;;;;;;5034630;28;20718;-60
2022/03/24 08:49:37;;;;;;;50.53;33.88;;;15.00;98.40;;;;;;5034288;28;20176;-60
2022/03/24 08:52:03;;;;;;;48.15;32.35;;;14.90;95.40;;;;;;5034216;28;20198;-59
2022/03/24 08:54:29;;;;;;;43.60;30.45;;;15.10;94.00;;;;;;5034126;28;20176;-60
2022/03/24 08:56:55;;;;;;;46.28;30.67;;;15.00;96.90;;;;;;5034055;28;20175;-59
2022/03/24 08:59:21;;;;;;;41.65;30.60;;;15.10;94.00;;;;;;5034391;28;20241;-59
2022/03/24 09:01:46;;;;;;;41.17;27.73;;;15.30;93.50;;;;;;5034042;28;20573;-59
2022/03/24 09:04:12;;;;;;;41.90;27.63;;;15.30;90.20;;;;;;5033880;28;20294;-59
2022/03/24 09:06:38;;;;;;;39.05;27.30;;;15.50;90.00;;;;;;5016358;28;20187;-59
2022/03/24 09:09:07;;;;;;;38.88;27.45;;;15.70;91.30;;;;;;5033740;28;20221;-59
2022/03/24 09:11:32;;;;;;;36.08;25.80;;;15.60;86.40;;;;;;5033652;28;20667;-59
2022/03/24 09:13:58;;;;;;;38.33;25.52;;;15.70;85.20;;;;;;5033924;28;20176;-59
2022/03/24 09:16:24;;;;;;;36.67;24.75;;;15.70;90.80;;;;;;5033954;28;20184;-59
2022/03/24 09:18:49;;;;;;;37.35;24.85;;;15.80;89.70;;;;;;5033617;28;20625;-59
2022/03/24 09:21:16;;;;;;;37.17;25.65;;;15.80;85.90;;;;;;5032571;28;20222;-59
2022/03/24 09:23:43;;;;;;;36.60;23.75;;;16.00;87.50;;;;;;5033500;28;20196;-59
2022/03/24 09:26:09;;;;;;;37.30;24.83;;;16.00;86.10;;;;;;5033648;28;20188;-59
2022/03/24 09:28:35;;;;;;;33.88;23.42;;;16.10;90.00;;;;;;5033689;28;20207;-59
2022/03/24 09:31:01;;;;;;;32.63;23.48;;;16.30;87.30;;;;;;5033634;28;20668;-60
2022/03/24 09:33:27;;;;;;;35.33;23.48;;;16.30;85.40;;;;;;5033338;28;20283;-59
2022/03/24 09:35:53;;;;;;;36.92;23.48;;;16.40;80.60;;;;;;5033443;28;20172;-59
2022/03/24 09:38:20;;;;;;;31.33;23.55;;;16.30;79.50;;;;;;5032152;28;20172;-59
2022/03/24 09:40:46;;;;;;;38.17;24.17;;;16.50;83.40;;;;;;5033253;28;20180;-60
2022/03/24 09:43:14;;;;;;;36.72;24.42;;;16.50;80.20;;;;;;5032282;28;20280;-59
2022/03/24 09:45:43;;;;;;;39.05;23.48;;;16.70;80.60;;;;;;5033115;28;20244;-59
2022/03/24 09:48:10;;;;;;;31.67;22.08;;;16.80;79.60;;;;;;5033295;28;20200;-59
2022/03/24 09:50:37;;;;;;;36.42;25.63;;;16.70;73.40;;;;;;5032230;28;20649;-59
2022/03/24 09:53:05;;;;;;;37.58;23.77;;;16.60;74.50;;;;;;5033097;28;20172;-59
2022/03/24 09:55:32;;;;;;;25.33;18.58;;;16.50;72.60;;;;;;5033294;28;20172;-59
2022/03/24 09:57:59;;;;;;;28.80;19.48;;;16.60;71.30;;;;;;5033482;28;20171;-59
2022/03/24 10:00:26;;;;;;;28.00;19.38;;;16.60;68.10;;;;;;5033153;28;20168;-59
2022/03/24 10:03:10;;;;;;;27.67;19.80;;;16.80;66.70;;;;;;5033106;28;20179;-60
2022/03/24 10:05:36;;;;;;;30.17;19.40;;;16.90;66.50;;;;;;5033009;28;20257;-61
2022/03/24 10:08:06;;;;;;;30.40;20.90;;;17.00;65.70;;;;;;5033235;28;20638;-59
2022/03/24 10:10:34;;;;;;;30.30;19.63;;;17.00;64.90;;;;;;5033130;28;20267;-59
2022/03/24 10:13:01;;;;;;;24.38;17.13;;;17.00;66.00;;;;;;5033082;28;20184;-60
2022/03/24 10:15:28;;;;;;;26.38;17.77;;;16.90;62.00;;;;;;5033264;28;20622;-59
2022/03/24 10:17:56;;;;;;;26.15;16.85;;;17.00;59.20;;;;;;5032929;28;20207;-59
2022/03/24 10:20:23;;;;;;;26.52;17.38;;;17.00;58.90;;;;;;5033030;28;20182;-59
2022/03/24 10:22:58;;;;;;;29.80;17.73;;;17.00;59.90;;;;;;5032939;28;20210;-60
2022/03/24 10:25:26;;;;;;;28.17;17.50;;;17.00;58.50;;;;;;5032878;28;20198;-60
2022/03/24 10:28:24;;;;;;;26.15;16.20;;;17.00;57.80;;;;;;5032888;28;20164;-60
2022/03/24 10:30:52;;;;;;;26.75;16.15;;;17.10;55.90;;;;;;5024796;28;20184;-60
2022/03/24 10:33:35;;;;;;;24.80;16.67;;;17.20;56.60;;;;;;5033050;28;20195;-59
2022/03/24 10:36:12;;;;;;;23.88;14.98;;;17.30;55.70;;;;;;5032954;28;20195;-59
2022/03/24 10:38:49;;;;;;;23.80;14.00;;;17.30;54.10;;;;;;5032772;28;20264;-59
2022/03/24 10:41:26;;;;;;;24.35;16.02;;;17.40;53.70;;;;;;5033537;28;20620;-60
2022/03/24 10:43:56;;;;;;;20.05;13.65;;;17.50;54.60;;;;;;5032796;28;20258;-59
2022/03/24 10:46:25;;;;;;;18.23;13.52;;;17.50;53.20;;;;;;5033039;28;20625;-58
2022/03/24 10:48:52;;;;;;;18.67;13.68;;;17.50;52.50;;;;;;5032767;28;20622;-59
2022/03/24 10:51:28;;;;;;;21.48;14.35;;;17.50;50.50;;;;;;5032632;28;20656;-59
2022/03/24 10:54:23;;;;;;;20.55;13.60;;;17.50;49.80;;;;;;5033842;28;20172;-59
2022/03/24 10:57:03;;;;;;;21.17;13.77;;;17.50;48.90;;;;;;5028787;28;20187;-59
2022/03/24 10:59:34;;;;;;;23.52;15.10;;;17.60;52.80;;;;;;5036186;28;20583;-59
2022/03/24 11:02:01;;;;;;;23.90;15.07;;;17.60;51.20;;;;;;5036263;28;20168;-60
2022/03/24 11:04:26;;;;;;;27.33;16.58;;;17.80;52.70;;;;;;5036210;28;20250;-59
2022/03/24 11:06:52;;;;;;;24.27;16.33;;;18.10;51.30;;;;;;5036142;28;20775;-60
2022/03/24 11:09:29;;;;;;;25.33;16.20;;;18.20;51.90;;;;;;5036256;28;20226;-59
2022/03/24 11:12:31;;;;;;;26.00;15.10;;;18.20;52.60;;;;;;5036252;28;20230;-59
2022/03/24 11:15:03;;;;;;;21.85;16.42;;;18.30;50.30;;;;;;5018564;28;20712;-59
2022/03/24 11:17:31;;;;;;;22.00;14.93;;;18.30;49.60;;;;;;5036085;28;20171;-60
2022/03/24 11:20:15;;;;;;;22.55;15.07;;;18.20;48.90;;;;;;5035985;28;20264;-58
2022/03/24 11:22:58;;;;;;;23.83;14.82;;;18.30;47.60;;;;;;5035852;28;20176;-59
2022/03/24 11:25:26;;;;;;;22.80;15.02;;;18.40;47.50;;;;;;5036540;28;20180;-59
2022/03/24 11:27:56;;;;;;;20.13;14.07;;;18.30;48.90;;;;;;5036097;28;20176;-59
2022/03/24 11:30:24;;;;;;;22.10;15.13;;;18.40;47.90;;;;;;5035882;28;20656;-58
2022/03/24 11:32:52;;;;;;;28.08;16.05;;;18.60;49.00;;;;;;5035572;28;20184;-58
2022/03/24 11:35:20;;;;;;;19.42;15.00;;;18.80;48.20;;;;;;5035438;28;20168;-58
2022/03/24 11:37:47;;;;;;;23.65;16.35;;;18.90;49.20;;;;;;5034551;28;20625;-58
2022/03/24 11:40:25;;;;;;;26.00;16.58;;;18.80;46.40;;;;;;5035653;28;20168;-59
2022/03/24 11:42:55;;;;;;;24.20;16.58;;;18.90;47.10;;;;;;5035468;28;20172;-59
2022/03/24 11:45:28;;;;;;;23.33;17.55;;;19.00;45.70;;;;;;5033935;28;20202;-59
2022/03/24 11:48:15;;;;;;;25.25;18.83;;;18.70;44.90;;;;;;5035709;28;20206;-59
2022/03/24 11:50:45;;;;;;;22.92;16.15;;;18.80;45.30;;;;;;5035553;28;20199;-58
2022/03/24 11:53:35;;;;;;;23.77;16.25;;;18.90;45.90;;;;;;5035348;28;20184;-59
2022/03/24 11:56:03;;;;;;;27.70;16.70;;;18.70;45.40;;;;;;5035257;28;20168;-59
2022/03/24 11:58:34;;;;;;;24.20;15.85;;;18.70;45.50;;;;;;5035343;28;20173;-59
2022/03/24 12:01:18;;;;;;;24.77;16.20;;;18.70;45.90;;;;;;5035148;28;20598;-58
2022/03/24 12:03:44;;;;;;;24.00;16.17;;;18.60;46.40;;;;;;5034967;28;20212;-59
2022/03/24 12:06:11;;;;;;;27.50;16.17;;;18.70;46.40;;;;;;5034126;28;20174;-59
2022/03/24 12:08:50;;;;;;;22.75;15.10;;;18.60;43.60;;;;;;5034937;28;20649;-59
2022/03/24 12:11:31;;;;;;;22.00;15.88;;;18.70;44.40;;;;;;5034832;28;20541;-59
2022/03/24 12:13:57;;;;;;;25.90;15.63;;;19.00;45.80;;;;;;5034997;28;20234;-59
2022/03/24 12:16:27;;;;;;;21.60;14.98;;;18.90;43.60;;;;;;5034658;28;20255;-59
2022/03/24 12:18:53;;;;;;;23.42;15.23;;;19.10;44.90;;;;;;5034731;28;20633;-59
2022/03/24 12:21:20;;;;;;;20.88;14.98;;;19.20;43.00;;;;;;5034906;28;20226;-59
2022/03/24 12:24:06;;;;;;;23.73;15.13;;;19.20;44.00;;;;;;5033764;28;20211;-58
2022/03/24 12:26:40;;;;;;;21.70;14.93;;;19.20;44.20;;;;;;5034626;28;20176;-59
2022/03/24 12:29:11;;;;;;;26.40;15.60;;;18.90;44.20;;;;;;5033306;28;20660;-58
2022/03/24 12:31:59;;;;;;;23.00;15.77;;;18.70;43.90;;;;;;5033508;28;20176;-59
2022/03/24 12:34:29;;;;;;;23.27;15.38;;;18.70;45.10;;;;;;5034585;28;20218;-59
2022/03/24 12:36:55;;;;;;;23.02;14.65;;;18.60;44.30;;;;;;5034488;28;20176;-59